createdAt,value
2022-10-30T00:03:26.021Z,100852.66
2022-10-30T00:08:47.841Z,100868.84
2022-10-30T00:14:09.780Z,100860.31
2022-10-30T00:19:31.618Z,100864.44
2022-10-30T00:24:53.481Z,100851.72
2022-10-30T00:30:15.443Z,100847.91
2022-10-30T00:35:37.331Z,100852.47
2022-10-30T00:40:59.183Z,100856.50
2022-10-30T00:46:31.134Z,100867.72
2022-10-30T00:51:54.782Z,100823.19
2022-10-30T00:57:16.938Z,100836.34
2022-10-30T01:02:40.381Z,100828.13
2022-10-30T01:08:02.542Z,100831.84
2022-10-30T01:13:25.260Z,100851.47
2022-10-30T01:19:25.757Z,100852.38
2022-10-30T01:24:56.564Z,100865.06
2022-10-30T01:30:39.988Z,100864.91
2022-10-30T01:36:27.895Z,100846.81
2022-10-30T01:41:49.694Z,100838.06
2022-10-30T01:47:22.869Z,100837.38
2022-10-30T01:53:12.994Z,100844.25
2022-10-30T01:58:49.195Z,100829.75
2022-10-30T02:04:13.253Z,100842.06
2022-10-30T02:09:35.573Z,100835.78
2022-10-30T02:15:00.224Z,100850.34
2022-10-30T02:20:23.191Z,100852.88
2022-10-30T02:25:45.902Z,100852.03
2022-10-30T02:31:07.746Z,100869.16
2022-10-30T02:36:29.768Z,100859.56
2022-10-30T02:41:51.545Z,100868.03
2022-10-30T02:47:13.340Z,100857.81
2022-10-30T02:52:35.223Z,100863.72
2022-10-30T02:57:57.044Z,100866.53
2022-10-30T03:03:23.007Z,100869.09
2022-10-30T03:08:46.341Z,100868.34
2022-10-30T03:14:08.209Z,100874.66
2022-10-30T03:19:29.980Z,100872.13
2022-10-30T03:24:51.783Z,100869.00
2022-10-30T03:30:13.683Z,100879.25
2022-10-30T03:35:36.460Z,100884.63
2022-10-30T03:40:58.649Z,100875.09
2022-10-30T03:46:20.436Z,100878.53
2022-10-30T03:51:42.292Z,100868.28
2022-10-30T03:57:04.234Z,100880.22
2022-10-30T04:02:26.058Z,100876.72
2022-10-30T04:07:48.081Z,100878.66
2022-10-30T04:13:11.833Z,100867.69
2022-10-30T04:18:33.664Z,100862.44
2022-10-30T04:23:55.489Z,100863.28
2022-10-30T04:29:17.360Z,100861.13
2022-10-30T04:34:39.353Z,100855.19
2022-10-30T04:40:01.194Z,100850.22
2022-10-30T04:45:23.025Z,100844.97
2022-10-30T04:50:45.262Z,100832.81
2022-10-30T04:56:07.448Z,100835.41
2022-10-30T05:01:29.383Z,100847.94
2022-10-30T05:06:51.278Z,100848.69
2022-10-30T05:12:13.180Z,100851.72
2022-10-30T05:17:34.979Z,100866.25
2022-10-30T05:22:58.580Z,100871.53
2022-10-30T05:28:20.450Z,100887.72
2022-10-30T05:33:42.354Z,100893.75
2022-10-30T05:39:04.213Z,100897.09
2022-10-30T05:44:47.426Z,100890.97
2022-10-30T05:50:08.585Z,100887.84
2022-10-30T05:55:30.790Z,100884.41
2022-10-30T06:00:53.028Z,100878.53
2022-10-30T06:06:14.844Z,100881.47
2022-10-30T06:11:36.683Z,100872.69
2022-10-30T06:16:58.551Z,100870.72
2022-10-30T06:22:20.393Z,100883.97
2022-10-30T06:27:43.597Z,100889.34
2022-10-30T06:33:05.905Z,100879.47
2022-10-30T06:38:27.696Z,100874.59
2022-10-30T06:43:49.513Z,100874.72
2022-10-30T06:49:12.199Z,100893.81
2022-10-30T06:54:34.152Z,100901.31
2022-10-30T06:59:56.103Z,100909.16
2022-10-30T07:05:17.918Z,100911.41
2022-10-30T07:10:40.163Z,100900.31
2022-10-30T07:16:01.982Z,100899.59
2022-10-30T07:21:25.949Z,100904.28
2022-10-30T07:26:47.762Z,100915.78
2022-10-30T07:32:12.688Z,100914.50
2022-10-30T07:37:34.505Z,100901.47
2022-10-30T07:42:57.992Z,100904.41
2022-10-30T07:48:20.057Z,100900.59
2022-10-30T07:53:41.919Z,100889.56
2022-10-30T07:59:03.741Z,100900.13
2022-10-30T08:04:25.567Z,100905.16
2022-10-30T08:09:47.382Z,100916.22
2022-10-30T08:15:09.803Z,100891.72
2022-10-30T08:20:31.614Z,100910.88
2022-10-30T08:25:53.471Z,100915.53
2022-10-30T08:31:15.299Z,100911.41
2022-10-30T08:36:37.115Z,100907.44
2022-10-30T08:41:59.291Z,100919.47
2022-10-30T08:47:21.114Z,100912.13
2022-10-30T08:52:42.981Z,100912.16
2022-10-30T08:58:05.005Z,100900.13
2022-10-30T09:03:26.859Z,100888.66
2022-10-30T09:08:48.686Z,100896.75
2022-10-30T09:14:10.555Z,100907.56
2022-10-30T09:19:32.387Z,100903.28
2022-10-30T09:24:54.213Z,100901.66
2022-10-30T09:30:16.171Z,100903.66
2022-10-30T09:35:38.056Z,100918.88
2022-10-30T09:41:16.656Z,100901.38
2022-10-30T09:47:11.683Z,100915.66
2022-10-30T09:52:45.987Z,100919.47
2022-10-30T09:58:35.630Z,100926.31
2022-10-30T10:04:23.962Z,100918.84
2022-10-30T10:09:51.415Z,100895.97
2022-10-30T10:15:39.495Z,100913.59
2022-10-30T10:21:14.016Z,100911.06
2022-10-30T10:27:08.993Z,100908.84
2022-10-30T10:32:39.913Z,100913.28
2022-10-30T10:38:27.803Z,100917.41
2022-10-30T10:43:55.382Z,100916.31
2022-10-30T10:49:40.219Z,100901.75
2022-10-30T10:55:27.076Z,100887.41
2022-10-30T11:00:49.017Z,100902.69
2022-10-30T11:06:25.832Z,100888.09
2022-10-30T11:11:53.453Z,100884.78
2022-10-30T11:17:24.131Z,100887.91
2022-10-30T11:22:50.277Z,100883.25
2022-10-30T11:28:34.633Z,100885.59
2022-10-30T11:33:56.643Z,100880.28
2022-10-30T11:39:22.504Z,100880.69
2022-10-30T11:44:50.392Z,100879.50
2022-10-30T11:50:22.036Z,100879.44
2022-10-30T11:55:49.211Z,100882.97
2022-10-30T12:01:22.256Z,100883.16
2022-10-30T12:06:44.247Z,100871.34
2022-10-30T12:12:21.508Z,100867.88
2022-10-30T12:17:55.522Z,100856.84
2022-10-30T12:23:20.792Z,100845.13
2022-10-30T12:28:57.275Z,100850.44
2022-10-30T12:34:25.136Z,100857.75
2022-10-30T12:40:13.841Z,100854.06
2022-10-30T12:45:44.853Z,100850.53
2022-10-30T12:51:09.388Z,100850.56
2022-10-30T12:56:38.910Z,100839.50
2022-10-30T13:02:16.124Z,100818.63
2022-10-30T13:07:50.175Z,100816.56
2022-10-30T13:13:23.385Z,100826.28
2022-10-30T13:18:45.252Z,100830.53
2022-10-30T13:24:21.472Z,100829.47
2022-10-30T13:30:04.772Z,100821.69
2022-10-30T13:35:45.241Z,100823.53
2022-10-30T13:41:19.932Z,100827.75
2022-10-30T13:47:18.428Z,100824.19
2022-10-30T13:52:48.487Z,100819.28
2022-10-30T13:58:29.490Z,100831.34
2022-10-30T14:04:06.623Z,100822.38
2022-10-30T14:09:45.201Z,100829.06
2022-10-30T14:15:18.971Z,100831.28
2022-10-30T14:20:49.604Z,100821.22
2022-10-30T14:26:19.432Z,100810.22
2022-10-30T14:31:41.249Z,100814.66
2022-10-30T14:37:03.301Z,100797.13
2022-10-30T14:42:25.090Z,100814.38
2022-10-30T14:47:46.872Z,100816.66
2022-10-30T14:53:31.332Z,100820.59
2022-10-30T14:59:12.424Z,100819.25
2022-10-30T15:04:40.157Z,100833.78
2022-10-30T15:10:21.983Z,100814.47
2022-10-30T15:15:44.912Z,100824.94
2022-10-30T15:21:07.621Z,100818.88
2022-10-30T15:26:36.747Z,100825.91
2022-10-30T15:32:25.284Z,100821.16
2022-10-30T15:38:07.797Z,100829.81
2022-10-30T15:43:33.644Z,100814.50
2022-10-30T15:48:55.524Z,100808.66
2022-10-30T15:54:20.473Z,100832.59
2022-10-30T15:59:53.254Z,100836.41
2022-10-30T16:05:22.925Z,100805.47
2022-10-30T16:10:46.049Z,100822.94
2022-10-30T16:16:16.782Z,100826.13
2022-10-30T16:21:38.699Z,100833.59
2022-10-30T16:27:14.069Z,100831.75
2022-10-30T16:32:35.947Z,100823.41
2022-10-30T16:37:58.077Z,100819.38
2022-10-30T16:43:29.766Z,100808.97
2022-10-30T16:48:59.309Z,100844.00
2022-10-30T16:54:24.956Z,100850.94
2022-10-30T16:59:51.007Z,100859.28
2022-10-30T17:05:26.183Z,100864.56
2022-10-30T17:10:47.985Z,100862.09
2022-10-30T17:16:18.778Z,100857.16
2022-10-30T17:21:42.478Z,100856.97
2022-10-30T17:27:07.141Z,100859.56
2022-10-30T17:32:42.814Z,100858.25
2022-10-30T17:38:04.933Z,100860.97
2022-10-30T17:43:33.337Z,100844.72
2022-10-30T17:48:58.195Z,100850.75
2022-10-30T17:54:20.279Z,100834.72
2022-10-30T17:59:43.059Z,100840.78
2022-10-30T18:05:21.613Z,100843.38
2022-10-30T18:10:43.504Z,100838.41
2022-10-30T18:16:05.784Z,100849.69
2022-10-30T18:21:27.582Z,100858.75
2022-10-30T18:26:49.408Z,100856.31
2022-10-30T18:32:11.450Z,100856.84
2022-10-30T18:37:33.267Z,100856.56
2022-10-30T18:42:55.561Z,100849.56
2022-10-30T18:48:17.353Z,100846.72
2022-10-30T18:53:39.170Z,100835.72
2022-10-30T18:59:02.541Z,100836.69
2022-10-30T19:04:24.804Z,100835.06
2022-10-30T19:09:47.097Z,100850.56
2022-10-30T19:15:23.237Z,100849.63
2022-10-30T19:21:03.250Z,100846.41
2022-10-30T19:26:26.707Z,100850.03
2022-10-30T19:31:48.517Z,100860.28
2022-10-30T19:37:10.345Z,100848.28
2022-10-30T19:42:32.159Z,100845.69
2022-10-30T19:47:59.426Z,100854.25
2022-10-30T19:53:21.264Z,100851.16
2022-10-30T19:58:43.099Z,100859.88
2022-10-30T20:04:04.909Z,100854.47
2022-10-30T20:09:26.713Z,100872.50
2022-10-30T20:14:48.533Z,100864.34
2022-10-30T20:20:22.995Z,100884.09
2022-10-30T20:25:45.183Z,100879.53
2022-10-30T20:31:08.563Z,100881.97
2022-10-30T20:36:30.421Z,100882.22
2022-10-30T20:41:52.931Z,100888.47
2022-10-30T20:47:14.755Z,100892.19
2022-10-30T20:52:36.630Z,100892.13
2022-10-30T20:57:58.824Z,100883.91
2022-10-30T21:03:20.777Z,100896.72
2022-10-30T21:08:42.632Z,100874.50
2022-10-30T21:14:04.440Z,100871.16
2022-10-30T21:19:26.654Z,100870.28
2022-10-30T21:24:48.510Z,100877.28
2022-10-30T21:30:10.964Z,100878.47
2022-10-30T21:35:33.690Z,100884.59
2022-10-30T21:40:55.989Z,100880.28
2022-10-30T21:46:18.638Z,100884.72
2022-10-30T21:51:40.476Z,100879.06
2022-10-30T21:57:02.369Z,100880.78
2022-10-30T22:02:24.236Z,100888.66
2022-10-30T22:07:46.058Z,100877.56
2022-10-30T22:13:07.948Z,100878.56
2022-10-30T22:18:29.876Z,100868.41
2022-10-30T22:23:51.688Z,100867.63
2022-10-30T22:29:13.658Z,100862.56
2022-10-30T22:34:35.468Z,100861.84
2022-10-30T22:39:57.282Z,100862.78
2022-10-30T22:45:19.104Z,100861.31
2022-10-30T22:50:40.933Z,100858.06
2022-10-30T22:56:21.376Z,100863.94
2022-10-30T23:01:43.283Z,100854.53
2022-10-30T23:07:05.145Z,100848.81
2022-10-30T23:12:27.100Z,100866.00
2022-10-30T23:17:49.617Z,100870.63
2022-10-30T23:23:12.042Z,100858.88
2022-10-30T23:28:33.932Z,100858.31
2022-10-30T23:33:58.427Z,100863.56
2022-10-30T23:39:20.220Z,100872.16
2022-10-30T23:44:42.033Z,100875.78
2022-10-30T23:50:04.216Z,100874.16
2022-10-30T23:55:26.023Z,100882.63
